createdAt,value
2023-01-26T00:00:14.967Z,90.60
2023-01-26T00:04:25.442Z,90.80
2023-01-26T00:08:36.261Z,89.50
2023-01-26T00:13:05.580Z,96.80
2023-01-26T00:17:24.706Z,94.70
2023-01-26T00:21:37.431Z,88.40
2023-01-26T00:25:54.995Z,89.80
2023-01-26T00:30:24.800Z,89.40
2023-01-26T00:34:55.491Z,86.60
2023-01-26T00:39:21.504Z,81.20
2023-01-26T00:43:31.661Z,86.50
2023-01-26T00:47:41.697Z,96.60
2023-01-26T00:52:10.800Z,92.90
2023-01-26T00:56:40.364Z,99.80
2023-01-26T01:00:58.335Z,97.00
2023-01-26T01:05:27.475Z,110.80
2023-01-26T01:09:21.932Z,99.80
2023-01-26T01:13:31.679Z,103.80
2023-01-26T01:18:01.208Z,109.00
2023-01-26T01:22:30.689Z,107.00
2023-01-26T01:26:44.194Z,105.90
2023-01-26T01:30:54.230Z,102.80
2023-01-26T01:35:23.660Z,110.00
2023-01-26T01:39:44.935Z,108.20
2023-01-26T01:43:53.868Z,104.60
2023-01-26T01:48:13.004Z,107.30
2023-01-26T01:52:26.881Z,101.50
2023-01-26T01:56:56.180Z,88.90
2023-01-26T02:01:09.969Z,83.70
2023-01-26T02:05:20.359Z,93.90
2023-01-26T02:09:42.171Z,92.70
2023-01-26T02:14:11.925Z,88.50
2023-01-26T02:18:41.166Z,73.90
2023-01-26T02:22:53.014Z,73.20
2023-01-26T02:27:04.929Z,74.80
2023-01-26T02:31:34.130Z,70.50
2023-01-26T02:36:03.194Z,66.10
2023-01-26T02:40:56.629Z,69.40
2023-01-26T02:45:02.070Z,71.80
2023-01-26T02:49:30.854Z,72.00
2023-01-26T02:54:00.478Z,66.60
2023-01-26T02:58:30.776Z,70.40
2023-01-26T03:05:03.402Z,67.80
2023-01-26T03:08:42.483Z,77.30
2023-01-26T03:12:22.945Z,72.80
2023-01-26T03:16:07.755Z,72.90
2023-01-26T03:19:54.727Z,72.00
2023-01-26T03:23:20.036Z,76.70
2023-01-26T03:26:59.645Z,72.90
2023-01-26T03:30:39.764Z,73.80
2023-01-26T03:33:59.239Z,75.60
2023-01-26T03:37:48.244Z,73.00
2023-01-26T03:41:20.248Z,71.00
2023-01-26T03:44:58.916Z,75.60
2023-01-26T03:48:29.264Z,77.40
2023-01-26T03:52:17.157Z,81.20
2023-01-26T03:55:48.599Z,79.20
2023-01-26T03:59:29.459Z,69.30
2023-01-26T04:03:14.491Z,72.80
2023-01-26T04:06:41.012Z,75.60
2023-01-26T04:10:29.656Z,70.40
2023-01-26T04:14:16.482Z,74.80
2023-01-26T04:18:04.269Z,83.30
2023-01-26T04:21:49.591Z,78.80
2023-01-26T04:25:44.877Z,72.60
2023-01-26T04:29:16.547Z,75.60
2023-01-26T04:33:04.211Z,79.20
2023-01-26T04:36:44.326Z,78.60
2023-01-26T04:40:29.362Z,70.20
2023-01-26T04:44:17.253Z,80.30
2023-01-26T04:48:06.458Z,79.40
2023-01-26T04:51:55.807Z,76.50
2023-01-26T04:55:30.471Z,79.40
2023-01-26T04:58:46.372Z,84.30
2023-01-26T05:02:37.649Z,87.50
2023-01-26T05:06:16.715Z,87.40
2023-01-26T05:10:05.910Z,81.30
2023-01-26T05:13:43.241Z,82.80
2023-01-26T05:17:29.767Z,85.30
2023-01-26T05:21:23.427Z,78.90
2023-01-26T05:25:05.106Z,74.60
2023-01-26T05:28:54.267Z,72.60
2023-01-26T05:32:35.780Z,90.70
2023-01-26T05:36:24.891Z,77.70
2023-01-26T05:40:07.635Z,58.50
2023-01-26T05:43:30.793Z,53.70
2023-01-26T05:47:32.219Z,57.90
2023-01-26T05:54:50.953Z,52.90
2023-01-26T05:58:41.637Z,51.20
2023-01-26T06:02:29.915Z,48.20
2023-01-26T06:06:05.389Z,51.40
2023-01-26T06:09:54.664Z,56.40
2023-01-26T06:13:41.876Z,47.90
2023-01-26T06:17:29.178Z,47.40
2023-01-26T06:20:50.652Z,47.30
2023-01-26T06:24:32.451Z,46.80
2023-01-26T06:28:21.413Z,45.20
2023-01-26T06:32:10.330Z,48.00
2023-01-26T06:35:59.296Z,47.70
2023-01-26T06:39:47.690Z,46.70
2023-01-26T06:43:21.981Z,43.80
2023-01-26T06:47:10.702Z,45.40
2023-01-26T06:50:59.706Z,44.10
2023-01-26T06:54:35.013Z,44.60
2023-01-26T06:58:16.436Z,45.40
2023-01-26T07:02:05.641Z,42.30
2023-01-26T07:05:55.199Z,48.50
2023-01-26T07:09:34.385Z,50.20
2023-01-26T07:13:14.114Z,40.20
2023-01-26T07:16:56.715Z,42.70
2023-01-26T07:20:45.943Z,44.50
2023-01-26T07:24:35.015Z,45.20
2023-01-26T07:28:23.948Z,44.90
2023-01-26T07:32:13.171Z,48.70
2023-01-26T07:36:02.090Z,71.60
2023-01-26T07:39:51.283Z,70.00
2023-01-26T07:43:20.210Z,46.40
2023-01-26T07:47:09.176Z,50.10
2023-01-26T07:50:52.335Z,52.10
2023-01-26T07:54:26.819Z,56.00
2023-01-26T07:58:15.723Z,57.90
2023-01-26T08:02:07.335Z,54.60
2023-01-26T08:05:57.426Z,49.30
2023-01-26T08:09:46.807Z,47.10
2023-01-26T08:13:36.306Z,48.10
2023-01-26T08:17:24.020Z,48.20
2023-01-26T08:21:05.726Z,51.50
2023-01-26T08:24:55.532Z,47.60
2023-01-26T08:28:44.618Z,46.60
2023-01-26T08:32:33.754Z,46.20
2023-01-26T08:36:23.198Z,47.20
2023-01-26T08:40:11.419Z,48.00
2023-01-26T08:44:00.598Z,51.00
2023-01-26T08:47:49.577Z,55.00
2023-01-26T08:51:18.559Z,54.00
2023-01-26T08:55:07.634Z,53.20
2023-01-26T08:58:49.299Z,56.60
2023-01-26T09:02:39.135Z,56.80
2023-01-26T09:06:28.497Z,59.00
2023-01-26T09:10:17.452Z,52.10
2023-01-26T09:14:07.183Z,53.70
2023-01-26T09:17:56.059Z,50.50
2023-01-26T09:21:47.829Z,51.30
2023-01-26T09:25:36.977Z,47.40
2023-01-26T09:29:25.939Z,48.10
2023-01-26T09:33:07.895Z,51.90
2023-01-26T09:36:57.042Z,45.10
2023-01-26T09:40:46.281Z,45.10
2023-01-26T09:44:39.688Z,44.10
2023-01-26T09:48:43.983Z,53.10
2023-01-26T09:52:45.392Z,45.40
2023-01-26T09:56:33.179Z,46.00
2023-01-26T10:00:34.668Z,48.80
2023-01-26T10:04:26.751Z,47.80
2023-01-26T10:08:08.974Z,49.80
2023-01-26T10:11:53.688Z,46.90
2023-01-26T10:15:55.447Z,45.40
2023-01-26T10:19:33.592Z,48.70
2023-01-26T10:23:32.945Z,47.30
2023-01-26T10:27:21.985Z,46.20
2023-01-26T10:30:57.944Z,44.50
2023-01-26T10:34:58.959Z,49.10
2023-01-26T10:38:46.334Z,42.50
2023-01-26T10:42:37.460Z,45.70
2023-01-26T10:46:25.248Z,43.90
2023-01-26T10:50:15.724Z,45.30
2023-01-26T10:54:05.094Z,45.30
2023-01-26T10:57:56.548Z,47.40
2023-01-26T11:01:45.600Z,40.80
2023-01-26T11:05:43.175Z,45.90
2023-01-26T11:09:32.157Z,41.40
2023-01-26T11:13:21.132Z,46.70
2023-01-26T11:16:58.331Z,44.20
2023-01-26T11:20:37.281Z,41.30
2023-01-26T11:24:28.065Z,40.80
2023-01-26T11:28:20.110Z,44.40
2023-01-26T11:32:13.608Z,46.30
2023-01-26T11:36:10.188Z,46.60
2023-01-26T11:40:09.567Z,42.10
2023-01-26T11:44:12.846Z,44.50
2023-01-26T11:48:09.418Z,45.90
2023-01-26T11:52:10.406Z,47.20
2023-01-26T11:56:17.284Z,40.10
2023-01-26T12:00:28.531Z,41.40
2023-01-26T12:04:24.091Z,40.10
2023-01-26T12:08:06.503Z,43.80
2023-01-26T12:11:44.398Z,37.90
2023-01-26T12:15:53.241Z,37.80
2023-01-26T12:19:51.247Z,41.80
2023-01-26T12:23:46.350Z,35.80
2023-01-26T12:27:36.861Z,41.40
2023-01-26T12:31:30.016Z,37.50
2023-01-26T12:35:03.460Z,39.00
2023-01-26T12:39:04.864Z,32.70
2023-01-26T12:43:17.937Z,35.30
2023-01-26T12:47:06.996Z,38.80
2023-01-26T12:50:51.569Z,38.50
2023-01-26T12:54:40.802Z,35.70
2023-01-26T12:58:29.852Z,47.90
2023-01-26T13:02:01.744Z,46.20
2023-01-26T13:05:51.034Z,56.20
2023-01-26T13:09:42.679Z,54.20
2023-01-26T13:13:58.762Z,50.30
2023-01-26T13:17:48.679Z,54.50
2023-01-26T13:21:40.135Z,51.40
2023-01-26T13:25:21.910Z,53.50
2023-01-26T13:29:01.219Z,49.50
2023-01-26T13:32:54.606Z,53.50
2023-01-26T13:36:44.248Z,52.80
2023-01-26T13:40:33.645Z,60.50
2023-01-26T13:44:15.277Z,52.80
2023-01-26T13:48:19.540Z,64.00
2023-01-26T13:52:08.927Z,62.20
2023-01-26T13:55:46.094Z,60.20
2023-01-26T13:59:35.893Z,60.80
2023-01-26T14:03:26.598Z,62.20
2023-01-26T14:07:04.087Z,60.00
2023-01-26T14:10:59.167Z,58.80
2023-01-26T14:14:41.386Z,59.80
2023-01-26T14:18:32.060Z,56.50
2023-01-26T14:22:33.149Z,63.70
2023-01-26T14:26:11.642Z,61.90
2023-01-26T14:30:01.183Z,61.80
2023-01-26T14:33:43.539Z,64.60
2023-01-26T14:37:33.247Z,61.90
2023-01-26T14:40:33.639Z,59.40
2023-01-26T14:43:59.792Z,58.50
2023-01-26T14:47:39.434Z,56.10
2023-01-26T14:51:14.435Z,59.20
2023-01-26T14:54:54.343Z,59.70
2023-01-26T14:58:28.620Z,65.60
2023-01-26T15:01:57.707Z,67.80
2023-01-26T15:05:53.341Z,66.10
2023-01-26T15:08:52.015Z,69.60
2023-01-26T15:12:33.004Z,57.20
2023-01-26T15:15:41.825Z,61.10
2023-01-26T15:19:19.481Z,61.80
2023-01-26T15:23:16.396Z,73.60
2023-01-26T15:26:57.401Z,70.50
2023-01-26T15:30:08.239Z,61.90
2023-01-26T15:33:33.355Z,66.40
2023-01-26T15:37:17.294Z,61.80
2023-01-26T15:40:59.639Z,60.20
2023-01-26T15:44:54.905Z,53.40
2023-01-26T15:48:45.210Z,59.70
2023-01-26T15:52:18.925Z,56.70
2023-01-26T15:55:56.755Z,50.60
2023-01-26T15:59:09.769Z,51.40
2023-01-26T16:02:54.697Z,53.50
2023-01-26T16:06:44.531Z,55.60
2023-01-26T16:10:13.401Z,52.90
2023-01-26T16:14:03.154Z,55.40
2023-01-26T16:17:07.832Z,60.40
2023-01-26T16:20:26.273Z,58.90
2023-01-26T16:24:08.407Z,55.30
2023-01-26T16:27:26.083Z,54.30
2023-01-26T16:30:51.176Z,57.30
2023-01-26T16:34:10.195Z,56.80
2023-01-26T16:37:20.527Z,61.80
2023-01-26T16:40:38.360Z,60.00
2023-01-26T16:44:14.782Z,57.70
2023-01-26T16:47:56.562Z,57.40
2023-01-26T16:51:23.511Z,64.10
2023-01-26T16:54:54.137Z,63.10
2023-01-26T16:58:29.168Z,62.80
2023-01-26T17:02:18.891Z,60.00
2023-01-26T17:05:50.663Z,59.40
2023-01-26T17:09:11.443Z,61.90
2023-01-26T17:12:33.455Z,67.30
2023-01-26T17:15:54.653Z,69.00
2023-01-26T17:18:51.515Z,65.20
2023-01-26T17:22:24.091Z,60.80
2023-01-26T17:25:55.484Z,58.30
2023-01-26T17:29:14.957Z,63.20
2023-01-26T17:32:28.851Z,66.90
2023-01-26T17:36:18.843Z,63.30
2023-01-26T17:39:54.195Z,54.30
2023-01-26T17:42:56.547Z,62.70
2023-01-26T17:46:30.191Z,61.70
2023-01-26T17:50:20.337Z,57.40
2023-01-26T17:53:31.320Z,56.40
2023-01-26T17:57:10.550Z,55.20
2023-01-26T18:00:51.467Z,62.70
2023-01-26T18:04:09.355Z,63.80
2023-01-26T18:07:50.564Z,55.10
2023-01-26T18:11:30.169Z,65.30
2023-01-26T18:14:50.192Z,58.50
2023-01-26T18:18:38.265Z,61.40
2023-01-26T18:21:57.878Z,66.20
2023-01-26T18:25:20.744Z,55.40
2023-01-26T18:29:00.172Z,62.00
2023-01-26T18:32:14.492Z,63.40
2023-01-26T18:35:15.996Z,60.20
2023-01-26T18:38:41.293Z,65.60
2023-01-26T18:42:31.905Z,59.30
2023-01-26T18:46:07.292Z,60.10
2023-01-26T18:49:31.104Z,59.60
2023-01-26T18:53:20.698Z,62.80
2023-01-26T18:56:52.589Z,63.50
2023-01-26T19:00:40.687Z,59.70
2023-01-26T19:04:18.265Z,61.80
2023-01-26T19:07:49.542Z,55.70
2023-01-26T19:11:15.356Z,58.20
2023-01-26T19:14:57.344Z,53.80
2023-01-26T19:18:20.020Z,59.50
2023-01-26T19:21:34.067Z,63.60
2023-01-26T19:24:44.265Z,58.30
2023-01-26T19:28:01.806Z,59.90
2023-01-26T19:31:24.927Z,60.60
2023-01-26T19:35:10.494Z,58.60
2023-01-26T19:38:42.823Z,52.30
2023-01-26T19:42:32.289Z,54.70
2023-01-26T19:46:00.941Z,53.30
2023-01-26T19:49:24.893Z,57.50
2023-01-26T19:52:53.909Z,58.10
2023-01-26T19:56:46.526Z,56.20
2023-01-26T20:00:14.008Z,56.00
2023-01-26T20:03:50.066Z,56.80
2023-01-26T20:07:30.049Z,62.50
2023-01-26T20:11:18.244Z,57.40
2023-01-26T20:14:53.353Z,57.60
2023-01-26T20:18:35.313Z,58.10
2023-01-26T20:22:06.695Z,54.80
2023-01-26T20:25:15.896Z,58.30
2023-01-26T20:28:58.448Z,54.90
2023-01-26T20:32:37.320Z,59.80
2023-01-26T20:36:23.718Z,55.40
2023-01-26T20:39:52.475Z,56.30
2023-01-26T20:43:25.202Z,57.70
2023-01-26T20:47:16.191Z,67.70
2023-01-26T20:50:56.022Z,70.20
2023-01-26T20:54:45.640Z,88.00
2023-01-26T20:58:18.233Z,86.80
2023-01-26T21:01:53.420Z,90.00
2023-01-26T21:05:17.976Z,66.40
2023-01-26T21:08:38.394Z,64.90
2023-01-26T21:12:12.404Z,81.00
2023-01-26T21:15:55.007Z,72.90
2023-01-26T21:19:29.863Z,62.30
2023-01-26T21:23:06.005Z,61.60
2023-01-26T21:26:50.441Z,55.50
2023-01-26T21:30:40.005Z,55.10
2023-01-26T21:34:29.628Z,55.40
2023-01-26T21:38:06.904Z,50.90
2023-01-26T21:42:17.799Z,53.60
2023-01-26T21:46:13.594Z,51.70
2023-01-26T21:50:02.792Z,51.80
2023-01-26T21:53:52.074Z,51.40
2023-01-26T21:57:39.220Z,46.20
2023-01-26T22:01:22.894Z,55.80
2023-01-26T22:05:12.195Z,54.80
2023-01-26T22:09:01.338Z,48.30
2023-01-26T22:12:40.955Z,50.00
2023-01-26T22:16:30.162Z,51.30
2023-01-26T22:20:01.817Z,52.90
2023-01-26T22:23:35.127Z,49.00
2023-01-26T22:27:07.297Z,49.50
2023-01-26T22:30:56.805Z,51.30
2023-01-26T22:34:21.609Z,52.80
2023-01-26T22:38:10.806Z,51.90
2023-01-26T22:41:44.666Z,49.70
2023-01-26T22:45:16.362Z,49.60
2023-01-26T22:48:04.333Z,57.00
2023-01-26T22:51:35.144Z,56.30
2023-01-26T22:55:24.444Z,58.60
2023-01-26T22:59:06.082Z,56.00
2023-01-26T23:02:54.306Z,52.50
2023-01-26T23:06:43.516Z,51.50
2023-01-26T23:10:26.362Z,61.30
2023-01-26T23:14:03.791Z,58.60
2023-01-26T23:17:26.383Z,54.20
2023-01-26T23:21:15.651Z,56.10
2023-01-26T23:24:57.214Z,55.10
2023-01-26T23:28:24.637Z,56.50
2023-01-26T23:31:56.199Z,50.00
2023-01-26T23:35:16.867Z,58.70
2023-01-26T23:39:00.103Z,58.30
2023-01-26T23:42:22.121Z,54.40
2023-01-26T23:46:10.528Z,52.20
2023-01-26T23:49:58.797Z,56.30
2023-01-26T23:53:47.515Z,59.60
2023-01-26T23:57:36.432Z,54.60
